createdAt,value
2018-05-31T00:00:49.685Z,26.10
2018-05-31T00:03:17.970Z,25.70
2018-05-31T00:05:46.264Z,25.80
2018-05-31T00:08:14.564Z,25.90
2018-05-31T00:10:42.860Z,26.10
2018-05-31T00:13:11.145Z,26.20
2018-05-31T00:15:39.554Z,26.20
2018-05-31T00:18:07.863Z,26.00
2018-05-31T00:20:37.663Z,26.00
2018-05-31T00:23:06.672Z,26.00
2018-05-31T00:25:35.369Z,26.10
2018-05-31T00:28:03.701Z,26.10
2018-05-31T00:30:32.013Z,26.10
2018-05-31T00:33:00.784Z,26.20
2018-05-31T00:35:29.821Z,26.20
2018-05-31T00:37:58.134Z,26.10
2018-05-31T00:40:27.210Z,26.10
2018-05-31T00:42:55.832Z,26.10
2018-05-31T00:45:24.585Z,26.20
2018-05-31T00:47:52.934Z,26.20
2018-05-31T00:50:21.251Z,26.10
2018-05-31T00:52:49.566Z,26.10
2018-05-31T00:58:20.621Z,25.70
2018-05-31T01:00:49.341Z,25.70
2018-05-31T01:03:17.620Z,25.70
2018-05-31T01:05:45.933Z,25.70
2018-05-31T01:08:14.245Z,25.60
2018-05-31T01:10:42.941Z,25.80
2018-05-31T01:13:11.247Z,25.80
2018-05-31T01:15:39.786Z,25.80
2018-05-31T01:18:10.155Z,25.80
2018-05-31T01:20:38.782Z,25.80
2018-05-31T01:23:07.777Z,26.00
2018-05-31T01:25:36.068Z,26.00
2018-05-31T01:28:04.758Z,25.80
2018-05-31T01:30:33.448Z,25.80
2018-05-31T01:33:01.742Z,25.80
2018-05-31T01:35:30.051Z,25.80
2018-05-31T01:38:10.205Z,25.90
2018-05-31T01:40:38.481Z,25.90
2018-05-31T01:43:06.835Z,26.00
2018-05-31T01:45:35.772Z,26.10
2018-05-31T01:48:04.065Z,26.30
2018-05-31T01:50:32.751Z,26.30
2018-05-31T01:53:01.476Z,26.40
2018-05-31T01:55:29.752Z,26.40
2018-05-31T01:57:58.081Z,26.30
2018-05-31T02:00:26.370Z,26.30
2018-05-31T02:02:55.065Z,26.60
2018-05-31T02:05:23.389Z,26.60
2018-05-31T02:07:51.679Z,26.70
2018-05-31T02:10:19.969Z,26.90
2018-05-31T02:12:48.297Z,27.10
2018-05-31T02:15:16.599Z,27.10
2018-05-31T02:17:44.881Z,27.10
2018-05-31T02:20:13.203Z,27.10
2018-05-31T02:22:41.498Z,26.90
2018-05-31T02:25:09.785Z,26.60
2018-05-31T02:27:38.107Z,26.00
2018-05-31T02:30:06.393Z,25.80
2018-05-31T02:32:35.077Z,25.60
2018-05-31T02:35:03.799Z,25.50
2018-05-31T02:37:32.090Z,25.50
2018-05-31T02:40:00.494Z,25.50
2018-05-31T02:42:28.811Z,25.40
2018-05-31T02:44:57.112Z,25.20
2018-05-31T02:47:25.409Z,25.00
2018-05-31T02:49:54.027Z,24.80
2018-05-31T02:52:22.324Z,24.70
2018-05-31T02:54:53.442Z,24.70
2018-05-31T02:57:28.356Z,24.80
2018-05-31T02:59:57.128Z,24.80
2018-05-31T03:02:26.054Z,25.00
2018-05-31T03:04:54.762Z,25.30
2018-05-31T03:07:27.513Z,25.30
2018-05-31T03:09:55.945Z,25.40
2018-05-31T03:12:24.232Z,25.50
2018-05-31T03:14:52.527Z,25.60
2018-05-31T03:17:20.851Z,25.60
2018-05-31T03:19:49.153Z,25.80
2018-05-31T03:22:17.792Z,26.00
2018-05-31T03:24:46.118Z,26.10
2018-05-31T03:27:14.405Z,26.00
2018-05-31T03:29:42.697Z,25.80
2018-05-31T03:32:11.030Z,25.60
2018-05-31T03:34:39.338Z,25.50
2018-05-31T03:37:07.638Z,25.50
2018-05-31T03:39:35.973Z,25.50
2018-05-31T03:42:04.325Z,25.50
2018-05-31T03:44:32.626Z,25.50
2018-05-31T03:47:00.961Z,25.40
2018-05-31T03:49:29.400Z,25.30
2018-05-31T03:51:57.695Z,25.30
2018-05-31T03:54:26.043Z,25.30
2018-05-31T03:56:54.683Z,25.40
2018-05-31T03:59:23.381Z,25.70
2018-05-31T04:01:52.089Z,25.90
2018-05-31T04:04:20.502Z,25.90
2018-05-31T04:06:48.783Z,26.00
2018-05-31T04:09:17.110Z,26.10
2018-05-31T04:11:45.430Z,26.30
2018-05-31T04:14:13.719Z,26.30
2018-05-31T04:16:42.033Z,26.40
2018-05-31T04:19:10.719Z,26.40
2018-05-31T04:21:39.417Z,26.50
2018-05-31T04:24:07.850Z,26.50
2018-05-31T04:26:36.137Z,26.50
2018-05-31T04:29:04.731Z,26.30
2018-05-31T04:31:33.446Z,26.20
2018-05-31T04:34:01.734Z,26.20
2018-05-31T04:36:30.038Z,26.20
2018-05-31T04:38:58.349Z,26.20
2018-05-31T04:41:26.644Z,26.30
2018-05-31T04:43:54.986Z,26.10
2018-05-31T04:46:23.279Z,26.00
2018-05-31T04:48:51.961Z,25.90
2018-05-31T04:51:20.308Z,25.90
2018-05-31T04:53:48.606Z,26.10
2018-05-31T04:56:16.905Z,26.20
2018-05-31T04:58:45.243Z,26.00
2018-05-31T05:01:13.545Z,25.80
2018-05-31T05:03:41.837Z,25.60
2018-05-31T05:06:10.550Z,26.00
2018-05-31T05:08:38.841Z,26.00
2018-05-31T05:11:07.247Z,26.30
2018-05-31T05:13:35.990Z,26.60
2018-05-31T05:16:04.300Z,26.60
2018-05-31T05:18:32.632Z,26.70
2018-05-31T05:21:00.929Z,26.50
2018-05-31T05:23:29.238Z,26.40
2018-05-31T05:26:03.771Z,26.30
2018-05-31T05:28:32.270Z,26.30
2018-05-31T05:31:00.967Z,26.20
2018-05-31T05:33:29.677Z,26.30
2018-05-31T05:35:58.214Z,26.30
2018-05-31T05:38:26.522Z,26.40
2018-05-31T05:40:54.821Z,26.50
2018-05-31T05:43:23.117Z,26.70
2018-05-31T05:45:51.468Z,26.60
2018-05-31T05:48:19.885Z,26.70
2018-05-31T05:50:48.172Z,26.90
2018-05-31T05:53:16.509Z,27.00
2018-05-31T05:55:44.823Z,27.00
2018-05-31T05:58:13.129Z,27.00
2018-05-31T06:00:41.855Z,26.90
2018-05-31T06:03:10.161Z,26.90
2018-05-31T06:05:38.505Z,27.00
2018-05-31T06:08:06.811Z,26.80
2018-05-31T06:10:35.537Z,27.10
2018-05-31T06:13:04.201Z,27.10
2018-05-31T06:15:32.612Z,27.10
2018-05-31T06:18:00.862Z,27.30
2018-05-31T06:20:29.579Z,27.20
2018-05-31T06:22:57.904Z,27.20
2018-05-31T06:25:26.245Z,27.20
2018-05-31T06:27:54.550Z,27.20
2018-05-31T06:30:23.083Z,27.40
2018-05-31T06:32:51.411Z,27.70
2018-05-31T06:35:19.725Z,27.80
2018-05-31T06:37:48.013Z,27.70
2018-05-31T06:40:16.431Z,27.60
2018-05-31T06:42:44.839Z,27.80
2018-05-31T06:45:13.122Z,28.00
2018-05-31T06:47:41.446Z,27.90
2018-05-31T06:50:09.773Z,28.00
2018-05-31T06:52:38.496Z,28.10
2018-05-31T06:55:07.039Z,28.10
2018-05-31T06:57:35.319Z,28.30
2018-05-31T07:00:03.611Z,28.60
2018-05-31T07:02:32.599Z,29.10
2018-05-31T07:05:02.147Z,29.10
2018-05-31T07:07:32.171Z,29.60
2018-05-31T07:10:01.084Z,29.60
2018-05-31T07:12:29.464Z,30.00
2018-05-31T07:14:57.747Z,30.30
2018-05-31T07:17:26.050Z,30.70
2018-05-31T07:19:54.766Z,30.90
2018-05-31T07:22:23.402Z,30.90
2018-05-31T07:24:51.769Z,31.30
2018-05-31T07:27:20.074Z,31.70
2018-05-31T07:29:48.761Z,32.90
2018-05-31T07:32:17.741Z,33.70
2018-05-31T07:34:46.061Z,33.70
2018-05-31T07:37:14.984Z,34.70
2018-05-31T07:39:43.269Z,35.60
2018-05-31T07:42:11.866Z,36.70
2018-05-31T07:44:40.153Z,37.70
2018-05-31T07:47:08.463Z,38.80
2018-05-31T07:49:36.773Z,39.50
2018-05-31T07:52:05.376Z,40.20
2018-05-31T07:54:33.687Z,41.10
2018-05-31T07:57:02.426Z,42.50
2018-05-31T07:59:30.725Z,42.50
2018-05-31T08:01:59.027Z,42.70
2018-05-31T08:04:27.358Z,43.10
2018-05-31T08:06:55.642Z,43.10
2018-05-31T08:09:24.231Z,43.30
2018-05-31T08:11:52.518Z,43.40
2018-05-31T08:14:20.802Z,43.10
2018-05-31T08:16:49.122Z,42.60
2018-05-31T08:19:17.402Z,42.40
2018-05-31T08:21:45.681Z,42.10
2018-05-31T08:24:13.981Z,41.60
2018-05-31T08:26:42.277Z,40.90
2018-05-31T08:29:10.621Z,40.50
2018-05-31T08:31:39.112Z,40.00
2018-05-31T08:34:07.301Z,39.50
2018-05-31T08:36:35.662Z,39.20
2018-05-31T08:39:03.961Z,38.80
2018-05-31T08:41:32.239Z,38.70
2018-05-31T08:44:00.616Z,38.50
2018-05-31T08:46:28.897Z,38.40
2018-05-31T08:48:57.248Z,38.40
2018-05-31T08:51:25.627Z,38.30
2018-05-31T08:53:53.913Z,37.90
2018-05-31T08:56:22.221Z,37.60
2018-05-31T08:58:50.897Z,37.50
2018-05-31T09:01:19.873Z,37.50
2018-05-31T09:03:48.184Z,37.50
2018-05-31T09:06:16.898Z,37.60
2018-05-31T09:08:45.207Z,37.60
2018-05-31T09:11:13.489Z,37.70
2018-05-31T09:13:41.767Z,37.80
2018-05-31T09:16:10.095Z,37.80
2018-05-31T09:18:38.370Z,37.70
2018-05-31T09:21:06.655Z,37.30
2018-05-31T09:23:34.947Z,37.20
2018-05-31T09:26:03.223Z,37.30
2018-05-31T09:28:31.573Z,37.40
2018-05-31T09:31:00.296Z,37.70
2018-05-31T09:33:28.586Z,37.70
2018-05-31T09:35:57.177Z,37.80
2018-05-31T09:38:25.488Z,37.90
2018-05-31T09:40:53.809Z,37.80
2018-05-31T09:43:22.187Z,37.80
2018-05-31T09:45:50.497Z,37.90
2018-05-31T09:48:19.470Z,38.30
2018-05-31T09:50:47.843Z,38.30
2018-05-31T09:53:16.212Z,38.40
2018-05-31T09:55:44.504Z,38.60
2018-05-31T09:58:12.881Z,38.60
2018-05-31T10:00:41.165Z,38.50
2018-05-31T10:03:09.444Z,38.40
2018-05-31T10:05:38.208Z,38.70
2018-05-31T10:08:06.482Z,38.70
2018-05-31T10:10:35.041Z,38.70
2018-05-31T10:13:03.335Z,38.70
2018-05-31T10:15:31.618Z,38.70
2018-05-31T10:18:00.203Z,38.70
2018-05-31T10:20:28.583Z,38.70
2018-05-31T10:22:56.964Z,38.80
2018-05-31T10:25:25.278Z,38.90
2018-05-31T10:27:54.007Z,39.00
2018-05-31T10:30:22.301Z,39.00
2018-05-31T10:32:50.676Z,39.00
2018-05-31T10:35:18.993Z,38.80
2018-05-31T10:37:47.281Z,38.50
2018-05-31T10:40:15.632Z,38.30
2018-05-31T10:42:43.994Z,38.50
2018-05-31T10:45:12.586Z,38.70
2018-05-31T10:47:40.999Z,38.90
2018-05-31T10:50:09.746Z,39.00
2018-05-31T10:52:38.073Z,39.00
2018-05-31T10:55:06.384Z,39.00
2018-05-31T10:57:34.695Z,39.10
2018-05-31T11:00:03.037Z,39.30
2018-05-31T11:02:31.380Z,39.50
2018-05-31T11:04:59.676Z,39.70
2018-05-31T11:07:27.981Z,39.80
2018-05-31T11:09:56.268Z,39.90
2018-05-31T11:12:24.637Z,40.20
2018-05-31T11:14:52.990Z,40.10
2018-05-31T11:17:21.356Z,39.80
2018-05-31T11:19:50.138Z,39.50
2018-05-31T11:22:18.494Z,39.30
2018-05-31T11:24:47.090Z,39.40
2018-05-31T11:27:15.921Z,39.60
2018-05-31T11:29:45.154Z,39.70
2018-05-31T11:32:13.427Z,39.70
2018-05-31T11:34:41.779Z,39.70
2018-05-31T11:37:10.536Z,39.80
2018-05-31T11:39:38.849Z,39.80
2018-05-31T11:42:07.149Z,39.70
2018-05-31T11:44:35.457Z,39.80
2018-05-31T11:47:03.751Z,39.80
2018-05-31T11:49:32.037Z,39.70
2018-05-31T11:52:00.330Z,39.80
2018-05-31T11:54:28.603Z,40.00
2018-05-31T11:56:56.874Z,39.90
2018-05-31T11:59:25.526Z,39.70
2018-05-31T12:01:54.062Z,39.70
2018-05-31T12:04:22.648Z,39.70
2018-05-31T12:06:50.943Z,39.50
2018-05-31T12:09:19.257Z,39.70
2018-05-31T12:11:47.640Z,39.80
2018-05-31T12:14:15.936Z,39.90
2018-05-31T12:16:44.223Z,39.90
2018-05-31T12:19:12.517Z,40.10
2018-05-31T12:21:40.804Z,40.30
2018-05-31T12:24:09.490Z,40.30
2018-05-31T12:26:38.223Z,40.10
2018-05-31T12:29:06.537Z,40.10
2018-05-31T12:31:35.045Z,40.00
2018-05-31T12:34:03.781Z,40.10
2018-05-31T12:36:32.383Z,40.10
2018-05-31T12:39:00.743Z,40.00
2018-05-31T12:41:29.121Z,39.80
2018-05-31T12:43:57.725Z,39.70
2018-05-31T12:46:26.301Z,39.70
2018-05-31T12:48:54.603Z,39.60
2018-05-31T12:51:22.886Z,39.40
2018-05-31T12:53:51.578Z,39.50
2018-05-31T12:56:20.138Z,39.60
2018-05-31T12:58:48.416Z,39.80
2018-05-31T13:01:16.765Z,39.90
2018-05-31T13:03:45.078Z,40.10
2018-05-31T13:06:13.753Z,39.50
2018-05-31T13:08:42.309Z,39.50
2018-05-31T13:11:11.367Z,39.00
2018-05-31T13:13:39.804Z,38.80
2018-05-31T13:16:08.845Z,38.60
2018-05-31T13:18:37.141Z,38.30
2018-05-31T13:21:05.427Z,38.40
2018-05-31T13:23:33.797Z,38.30
2018-05-31T13:26:02.197Z,38.10
2018-05-31T13:28:30.487Z,38.20
2018-05-31T13:30:58.796Z,38.30
2018-05-31T13:33:27.129Z,38.10
2018-05-31T13:35:55.605Z,38.30
2018-05-31T13:38:23.922Z,38.50
2018-05-31T13:40:52.237Z,38.60
2018-05-31T13:43:20.519Z,38.70
2018-05-31T13:45:48.831Z,38.70
2018-05-31T13:48:17.113Z,38.80
2018-05-31T13:50:45.807Z,39.10
2018-05-31T13:53:14.374Z,39.10
2018-05-31T13:55:43.058Z,39.30
2018-05-31T13:58:11.749Z,39.20
2018-05-31T14:00:40.058Z,39.20
2018-05-31T14:03:08.715Z,39.10
2018-05-31T14:05:36.997Z,39.00
2018-05-31T14:08:05.699Z,38.90
2018-05-31T14:10:33.999Z,38.90
2018-05-31T14:13:02.403Z,39.00
2018-05-31T14:15:30.748Z,39.00
2018-05-31T14:17:59.048Z,39.00
2018-05-31T14:20:27.338Z,39.00
2018-05-31T14:22:55.657Z,38.90
2018-05-31T14:25:25.233Z,39.00
2018-05-31T14:27:53.634Z,39.00
2018-05-31T14:30:21.989Z,39.00
2018-05-31T14:32:50.275Z,39.00
2018-05-31T14:35:19.257Z,39.00
2018-05-31T14:37:47.554Z,39.00
2018-05-31T14:40:16.225Z,38.80
2018-05-31T14:42:44.986Z,38.80
2018-05-31T14:45:13.288Z,38.80
2018-05-31T14:47:41.867Z,38.80
2018-05-31T14:50:10.219Z,38.80
2018-05-31T14:52:38.825Z,38.70
2018-05-31T14:55:07.132Z,38.60
2018-05-31T14:57:35.836Z,38.30
2018-05-31T15:00:04.144Z,38.30
2018-05-31T15:02:32.458Z,38.10
2018-05-31T15:05:00.748Z,38.00
2018-05-31T15:07:29.055Z,37.90
2018-05-31T15:09:57.364Z,37.90
2018-05-31T15:12:26.109Z,37.80
2018-05-31T15:14:54.629Z,37.80
2018-05-31T15:17:22.933Z,37.80
2018-05-31T15:19:51.201Z,37.80
2018-05-31T15:22:19.477Z,37.70
2018-05-31T15:24:47.821Z,37.70
2018-05-31T15:27:16.212Z,37.70
2018-05-31T15:29:44.619Z,37.80
2018-05-31T15:32:12.970Z,37.70
2018-05-31T15:34:41.250Z,37.70
2018-05-31T15:37:09.724Z,37.70
2018-05-31T15:39:38.239Z,37.50
2018-05-31T15:42:06.583Z,37.40
2018-05-31T15:44:34.867Z,37.40
2018-05-31T15:47:03.171Z,37.20
2018-05-31T15:49:31.446Z,37.20
2018-05-31T15:52:00.421Z,37.20
2018-05-31T15:54:28.887Z,37.20
2018-05-31T15:56:57.265Z,37.10
2018-05-31T15:59:25.875Z,37.00
2018-05-31T16:01:54.159Z,36.80
2018-05-31T16:04:22.527Z,36.50
2018-05-31T16:06:51.046Z,36.50
2018-05-31T16:09:19.584Z,36.50
2018-05-31T16:11:48.350Z,36.40
2018-05-31T16:14:16.634Z,36.40
2018-05-31T16:16:45.012Z,36.40
2018-05-31T16:19:13.310Z,36.40
2018-05-31T16:21:41.606Z,36.10
2018-05-31T16:24:10.303Z,35.50
2018-05-31T16:26:38.738Z,35.50
2018-05-31T16:29:07.517Z,35.40
2018-05-31T16:31:35.806Z,35.40
2018-05-31T16:34:04.558Z,35.00
2018-05-31T16:36:32.881Z,35.00
2018-05-31T16:39:01.580Z,34.90
2018-05-31T16:41:30.149Z,34.90
2018-05-31T16:43:58.506Z,34.80
2018-05-31T16:46:26.805Z,34.80
2018-05-31T16:48:55.522Z,34.70
2018-05-31T16:51:23.946Z,34.80
2018-05-31T16:53:52.285Z,34.80
2018-05-31T16:56:20.826Z,34.80
2018-05-31T16:58:49.133Z,34.60
2018-05-31T17:01:17.495Z,34.50
2018-05-31T17:03:46.431Z,34.60
2018-05-31T17:06:14.713Z,34.50
2018-05-31T17:08:44.254Z,34.50
2018-05-31T17:11:12.542Z,34.50
2018-05-31T17:13:40.874Z,34.50
2018-05-31T17:16:09.204Z,34.60
2018-05-31T17:18:37.881Z,34.60
2018-05-31T17:21:06.180Z,34.60
2018-05-31T17:23:34.502Z,34.60
2018-05-31T17:26:02.882Z,34.70
2018-05-31T17:28:31.183Z,34.50
2018-05-31T17:30:59.925Z,34.50
2018-05-31T17:33:28.265Z,34.50
2018-05-31T17:35:56.935Z,34.50
2018-05-31T17:38:25.266Z,34.50
2018-05-31T17:40:53.693Z,34.50
2018-05-31T17:43:22.838Z,34.60
2018-05-31T17:45:51.670Z,34.50
2018-05-31T17:48:19.970Z,34.50
2018-05-31T17:50:48.304Z,34.30
2018-05-31T17:53:16.992Z,34.20
2018-05-31T17:55:45.375Z,34.20
2018-05-31T17:58:15.211Z,34.10
2018-05-31T18:00:43.685Z,34.00
2018-05-31T18:03:12.407Z,33.90
2018-05-31T18:05:40.700Z,33.90
2018-05-31T18:08:09.037Z,34.10
2018-05-31T18:10:37.844Z,34.30
2018-05-31T18:13:06.275Z,34.30
2018-05-31T18:15:35.165Z,34.40
2018-05-31T18:18:03.744Z,34.30
2018-05-31T18:20:32.173Z,34.30
2018-05-31T18:23:00.779Z,34.40
2018-05-31T18:25:29.704Z,34.40
2018-05-31T18:27:58.451Z,34.40
2018-05-31T18:30:27.606Z,34.40
2018-05-31T18:32:57.214Z,34.40
2018-05-31T18:35:25.892Z,34.40
2018-05-31T18:37:54.436Z,34.40
2018-05-31T18:40:23.200Z,34.30
2018-05-31T18:42:51.779Z,34.20
2018-05-31T18:45:20.376Z,34.20
2018-05-31T18:47:49.049Z,34.20
2018-05-31T18:50:17.650Z,34.00
2018-05-31T18:52:46.319Z,34.00
2018-05-31T18:55:15.022Z,33.80
2018-05-31T18:57:43.407Z,33.60
2018-05-31T19:00:11.745Z,33.50
2018-05-31T19:02:40.968Z,33.40
2018-05-31T19:05:09.264Z,33.40
2018-05-31T19:07:37.991Z,33.40
2018-05-31T19:10:06.963Z,33.20
2018-05-31T19:12:41.117Z,33.20
2018-05-31T19:15:10.564Z,33.10
2018-05-31T19:17:38.959Z,33.00
2018-05-31T19:20:07.294Z,33.00
2018-05-31T19:22:36.060Z,32.90
2018-05-31T19:25:10.109Z,32.90
2018-05-31T19:27:39.338Z,32.80
2018-05-31T19:30:14.083Z,32.70
2018-05-31T19:32:42.450Z,32.70
2018-05-31T19:35:16.963Z,32.60
2018-05-31T19:37:45.263Z,32.60
2018-05-31T19:40:13.561Z,32.60
2018-05-31T19:42:47.579Z,32.60
2018-05-31T19:45:15.865Z,32.50
2018-05-31T19:47:44.482Z,32.60
2018-05-31T19:50:12.834Z,32.60
2018-05-31T19:52:46.992Z,32.60
2018-05-31T19:55:15.425Z,32.50
2018-05-31T19:57:49.507Z,32.20
2018-05-31T20:03:26.383Z,32.00
2018-05-31T20:05:55.011Z,32.10
2018-05-31T20:08:36.494Z,32.10
2018-05-31T20:11:05.275Z,32.00
2018-05-31T20:13:33.822Z,31.70
2018-05-31T20:16:02.124Z,31.80
2018-05-31T20:18:31.750Z,31.80
2018-05-31T20:21:00.071Z,31.80
2018-05-31T20:23:30.157Z,31.80
2018-05-31T20:26:01.141Z,31.90
2018-05-31T20:28:30.865Z,31.80
2018-05-31T20:31:01.326Z,31.90
2018-05-31T20:33:30.964Z,31.90
2018-05-31T20:36:00.475Z,31.90
2018-05-31T20:38:30.345Z,31.80
2018-05-31T20:40:59.512Z,31.80
2018-05-31T20:43:28.698Z,31.70
2018-05-31T20:45:57.137Z,31.40
2018-05-31T20:48:25.986Z,31.20
2018-05-31T20:50:55.038Z,31.20
2018-05-31T20:53:24.502Z,31.00
2018-05-31T20:55:53.562Z,31.00
2018-05-31T20:58:22.750Z,31.00
2018-05-31T21:00:51.835Z,30.80
2018-05-31T21:03:21.084Z,30.60
2018-05-31T21:05:50.285Z,30.20
2018-05-31T21:08:18.574Z,30.20
2018-05-31T21:10:46.863Z,30.00
2018-05-31T21:13:15.266Z,30.10
2018-05-31T21:15:43.547Z,30.20
2018-05-31T21:18:11.822Z,30.20
2018-05-31T21:20:40.261Z,30.10
2018-05-31T21:23:08.901Z,30.00
2018-05-31T21:25:37.184Z,30.00
2018-05-31T21:28:05.483Z,30.10
2018-05-31T21:30:33.793Z,30.10
2018-05-31T21:33:02.070Z,30.20
2018-05-31T21:35:30.413Z,30.20
2018-05-31T21:37:59.091Z,30.30
2018-05-31T21:40:27.771Z,30.40
2018-05-31T21:42:56.480Z,30.40
2018-05-31T21:45:24.766Z,30.40
2018-05-31T21:47:53.053Z,30.30
2018-05-31T21:50:21.361Z,30.50
2018-05-31T21:52:49.638Z,30.70
2018-05-31T21:55:17.919Z,30.70
2018-05-31T21:57:46.454Z,30.70
2018-05-31T22:00:41.166Z,30.70
2018-05-31T22:03:10.401Z,30.80
2018-05-31T22:05:38.770Z,30.60
2018-05-31T22:08:07.122Z,30.50
2018-05-31T22:10:35.430Z,30.50
2018-05-31T22:13:03.728Z,30.70
2018-05-31T22:15:32.405Z,30.70
2018-05-31T22:18:00.969Z,30.70
2018-05-31T22:20:29.248Z,30.60
2018-05-31T22:22:57.532Z,30.60
2018-05-31T22:25:25.827Z,30.40
2018-05-31T22:27:54.501Z,29.50
2018-05-31T22:30:23.069Z,29.50
2018-05-31T22:32:51.400Z,29.30
2018-05-31T22:35:19.679Z,29.00
2018-05-31T22:37:48.379Z,28.50
2018-05-31T22:40:16.822Z,28.10
2018-05-31T22:42:45.561Z,27.40
2018-05-31T22:45:13.836Z,27.40
2018-05-31T22:47:42.154Z,27.30
2018-05-31T22:50:11.128Z,27.10
2018-05-31T22:52:39.414Z,27.10
2018-05-31T22:55:08.194Z,27.20
2018-05-31T22:57:36.524Z,27.20
2018-05-31T23:00:04.823Z,27.10
2018-05-31T23:02:33.134Z,27.00
2018-05-31T23:05:01.631Z,26.80
2018-05-31T23:07:30.307Z,26.70
2018-05-31T23:09:58.626Z,26.70
2018-05-31T23:12:26.911Z,26.80
2018-05-31T23:14:55.188Z,26.90
2018-05-31T23:17:23.482Z,26.90
2018-05-31T23:19:51.754Z,26.80
2018-05-31T23:22:20.052Z,26.60
2018-05-31T23:24:48.392Z,26.50
2018-05-31T23:27:16.679Z,26.50
2018-05-31T23:29:44.969Z,26.50
2018-05-31T23:32:13.273Z,26.40
2018-05-31T23:34:41.951Z,26.40
2018-05-31T23:37:10.222Z,26.40
2018-05-31T23:39:38.513Z,26.40
2018-05-31T23:42:07.205Z,26.30
2018-05-31T23:44:35.512Z,26.30
2018-05-31T23:47:03.808Z,26.30
2018-05-31T23:49:32.170Z,26.30
2018-05-31T23:52:00.810Z,26.20
2018-05-31T23:54:29.514Z,26.30
2018-05-31T23:56:57.797Z,26.30
2018-05-31T23:59:26.165Z,26.30
